sensor_id;sensor_type;location;lat;lon;timestamp;temperature;humidity
62007;DHT22;47963;53.008;6.754;2022-09-09T00:05:27;15.30;99.90
62007;DHT22;47963;53.008;6.754;2022-09-09T00:07:55;15.30;99.90
62007;DHT22;47963;53.008;6.754;2022-09-09T00:10:33;15.30;99.90
62007;DHT22;47963;53.008;6.754;2022-09-09T00:18:44;15.20;99.90
62007;DHT22;47963;53.008;6.754;2022-09-09T00:21:16;15.20;99.90
62007;DHT22;47963;53.008;6.754;2022-09-09T00:28:56;15.20;99.90
62007;DHT22;47963;53.008;6.754;2022-09-09T00:31:28;15.10;99.90
62007;DHT22;47963;53.008;6.754;2022-09-09T00:33:58;15.10;99.90
62007;DHT22;47963;53.008;6.754;2022-09-09T00:36:27;15.10;99.90
62007;DHT22;47963;53.008;6.754;2022-09-09T00:38:59;15.10;99.90
62007;DHT22;47963;53.008;6.754;2022-09-09T00:44:31;15.10;99.90
62007;DHT22;47963;53.008;6.754;2022-09-09T00:52:49;15.00;99.90
62007;DHT22;47963;53.008;6.754;2022-09-09T00:55:36;15.00;99.90
62007;DHT22;47963;53.008;6.754;2022-09-09T00:58:07;15.00;99.90
62007;DHT22;47963;53.008;6.754;2022-09-09T01:00:48;15.00;99.90
62007;DHT22;47963;53.008;6.754;2022-09-09T01:03:33;15.00;99.90
62007;DHT22;47963;53.008;6.754;2022-09-09T01:09:05;14.90;99.90
62007;DHT22;47963;53.008;6.754;2022-09-09T01:11:59;14.90;99.90
62007;DHT22;47963;53.008;6.754;2022-09-09T01:17:21;14.90;99.90
62007;DHT22;47963;53.008;6.754;2022-09-09T01:20:10;14.90;99.90
62007;DHT22;47963;53.008;6.754;2022-09-09T01:28:11;14.90;99.90
62007;DHT22;47963;53.008;6.754;2022-09-09T01:30:41;14.80;99.90
62007;DHT22;47963;53.008;6.754;2022-09-09T01:33:13;14.80;99.90
62007;DHT22;47963;53.008;6.754;2022-09-09T01:36:08;14.80;99.90
62007;DHT22;47963;53.008;6.754;2022-09-09T01:38:35;14.80;99.90
62007;DHT22;47963;53.008;6.754;2022-09-09T01:41:01;14.80;99.90
62007;DHT22;47963;53.008;6.754;2022-09-09T01:43:28;14.80;99.90
62007;DHT22;47963;53.008;6.754;2022-09-09T01:45:56;14.80;99.90
62007;DHT22;47963;53.008;6.754;2022-09-09T01:48:25;14.70;99.90
62007;DHT22;47963;53.008;6.754;2022-09-09T01:50:51;14.70;99.90
62007;DHT22;47963;53.008;6.754;2022-09-09T01:53:18;14.60;99.90
62007;DHT22;47963;53.008;6.754;2022-09-09T01:55:55;14.70;99.90
62007;DHT22;47963;53.008;6.754;2022-09-09T01:58:26;14.60;99.90
62007;DHT22;47963;53.008;6.754;2022-09-09T02:01:02;14.70;99.90
62007;DHT22;47963;53.008;6.754;2022-09-09T02:03:32;14.60;99.90
62007;DHT22;47963;53.008;6.754;2022-09-09T02:06:05;14.60;99.90
62007;DHT22;47963;53.008;6.754;2022-09-09T02:11:21;14.50;99.90
62007;DHT22;47963;53.008;6.754;2022-09-09T02:13:51;14.60;99.90
62007;DHT22;47963;53.008;6.754;2022-09-09T02:16:32;14.60;99.90
62007;DHT22;47963;53.008;6.754;2022-09-09T02:19:16;14.60;99.90
62007;DHT22;47963;53.008;6.754;2022-09-09T02:21:44;14.60;99.90
62007;DHT22;47963;53.008;6.754;2022-09-09T02:24:11;14.60;99.90
62007;DHT22;47963;53.008;6.754;2022-09-09T02:26:41;14.60;99.90
62007;DHT22;47963;53.008;6.754;2022-09-09T02:29:21;14.60;99.90
62007;DHT22;47963;53.008;6.754;2022-09-09T02:31:49;14.60;99.90
62007;DHT22;47963;53.008;6.754;2022-09-09T02:34:18;14.50;99.90
62007;DHT22;47963;53.008;6.754;2022-09-09T02:36:46;14.60;99.90
62007;DHT22;47963;53.008;6.754;2022-09-09T02:39:13;14.60;99.90
62007;DHT22;47963;53.008;6.754;2022-09-09T02:41:41;14.60;99.90
62007;DHT22;47963;53.008;6.754;2022-09-09T02:44:14;14.60;99.90
62007;DHT22;47963;53.008;6.754;2022-09-09T02:52:38;14.60;99.90
62007;DHT22;47963;53.008;6.754;2022-09-09T02:55:48;14.50;99.90
62007;DHT22;47963;53.008;6.754;2022-09-09T02:58:20;14.50;99.90
62007;DHT22;47963;53.008;6.754;2022-09-09T03:00:47;14.60;99.90
62007;DHT22;47963;53.008;6.754;2022-09-09T03:03:13;14.60;99.90
62007;DHT22;47963;53.008;6.754;2022-09-09T03:05:39;14.60;99.90
62007;DHT22;47963;53.008;6.754;2022-09-09T03:08:06;14.60;99.90
62007;DHT22;47963;53.008;6.754;2022-09-09T03:10:32;14.60;99.90
62007;DHT22;47963;53.008;6.754;2022-09-09T03:12:58;14.60;99.90
62007;DHT22;47963;53.008;6.754;2022-09-09T03:15:24;14.60;99.90
62007;DHT22;47963;53.008;6.754;2022-09-09T03:17:55;14.60;99.90
62007;DHT22;47963;53.008;6.754;2022-09-09T03:20:25;14.60;99.90
62007;DHT22;47963;53.008;6.754;2022-09-09T03:22:52;14.60;99.90
62007;DHT22;47963;53.008;6.754;2022-09-09T03:25:19;14.60;99.90
62007;DHT22;47963;53.008;6.754;2022-09-09T03:27:44;14.60;99.90
62007;DHT22;47963;53.008;6.754;2022-09-09T03:30:10;14.60;99.90
62007;DHT22;47963;53.008;6.754;2022-09-09T03:32:36;14.60;99.90
62007;DHT22;47963;53.008;6.754;2022-09-09T03:35:02;14.60;99.90
62007;DHT22;47963;53.008;6.754;2022-09-09T03:37:28;14.60;99.90
62007;DHT22;47963;53.008;6.754;2022-09-09T03:39:54;14.60;99.90
62007;DHT22;47963;53.008;6.754;2022-09-09T03:42:20;14.60;99.90
62007;DHT22;47963;53.008;6.754;2022-09-09T03:44:46;14.60;99.90
62007;DHT22;47963;53.008;6.754;2022-09-09T03:47:21;14.60;99.90
62007;DHT22;47963;53.008;6.754;2022-09-09T03:49:47;14.60;99.90
62007;DHT22;47963;53.008;6.754;2022-09-09T03:52:14;14.60;99.90
62007;DHT22;47963;53.008;6.754;2022-09-09T03:54:40;14.70;99.90
62007;DHT22;47963;53.008;6.754;2022-09-09T03:57:09;14.60;99.90
62007;DHT22;47963;53.008;6.754;2022-09-09T03:59:35;14.60;99.90
62007;DHT22;47963;53.008;6.754;2022-09-09T04:02:01;14.60;99.90
62007;DHT22;47963;53.008;6.754;2022-09-09T04:04:27;14.70;99.90
62007;DHT22;47963;53.008;6.754;2022-09-09T04:06:53;14.70;99.90
62007;DHT22;47963;53.008;6.754;2022-09-09T04:09:19;14.70;99.90
62007;DHT22;47963;53.008;6.754;2022-09-09T04:11:45;14.60;99.90
62007;DHT22;47963;53.008;6.754;2022-09-09T04:14:11;14.60;99.90
62007;DHT22;47963;53.008;6.754;2022-09-09T04:16:38;14.60;99.90
62007;DHT22;47963;53.008;6.754;2022-09-09T04:19:04;14.60;99.90
62007;DHT22;47963;53.008;6.754;2022-09-09T04:21:30;14.60;99.90
62007;DHT22;47963;53.008;6.754;2022-09-09T04:23:56;14.60;99.90
62007;DHT22;47963;53.008;6.754;2022-09-09T04:26:22;14.60;99.90
62007;DHT22;47963;53.008;6.754;2022-09-09T04:28:48;14.60;99.90
62007;DHT22;47963;53.008;6.754;2022-09-09T04:31:21;14.50;99.90
62007;DHT22;47963;53.008;6.754;2022-09-09T04:33:49;14.60;99.90
62007;DHT22;47963;53.008;6.754;2022-09-09T04:36:15;14.60;99.90
62007;DHT22;47963;53.008;6.754;2022-09-09T04:38:41;14.60;99.90
62007;DHT22;47963;53.008;6.754;2022-09-09T04:41:06;14.60;99.90
62007;DHT22;47963;53.008;6.754;2022-09-09T04:43:33;14.70;99.90
62007;DHT22;47963;53.008;6.754;2022-09-09T04:45:58;14.70;99.90
62007;DHT22;47963;53.008;6.754;2022-09-09T04:48:25;14.70;99.90
62007;DHT22;47963;53.008;6.754;2022-09-09T04:51:03;14.60;99.90
62007;DHT22;47963;53.008;6.754;2022-09-09T04:53:30;14.70;99.90
62007;DHT22;47963;53.008;6.754;2022-09-09T04:56:10;14.60;99.90
62007;DHT22;47963;53.008;6.754;2022-09-09T04:58:37;14.60;99.90
62007;DHT22;47963;53.008;6.754;2022-09-09T05:01:19;14.60;99.90
62007;DHT22;47963;53.008;6.754;2022-09-09T05:03:46;14.60;99.90
62007;DHT22;47963;53.008;6.754;2022-09-09T05:06:20;14.60;99.90
62007;DHT22;47963;53.008;6.754;2022-09-09T05:08:46;14.60;99.90
62007;DHT22;47963;53.008;6.754;2022-09-09T05:11:21;14.60;99.90
62007;DHT22;47963;53.008;6.754;2022-09-09T05:13:49;14.60;99.90
62007;DHT22;47963;53.008;6.754;2022-09-09T05:16:16;14.60;99.90
62007;DHT22;47963;53.008;6.754;2022-09-09T05:18:42;14.50;99.90
62007;DHT22;47963;53.008;6.754;2022-09-09T05:21:09;14.60;99.90
62007;DHT22;47963;53.008;6.754;2022-09-09T05:26:01;14.60;99.90
62007;DHT22;47963;53.008;6.754;2022-09-09T05:28:27;14.60;99.90
62007;DHT22;47963;53.008;6.754;2022-09-09T05:31:02;14.60;99.90
62007;DHT22;47963;53.008;6.754;2022-09-09T05:33:34;14.60;99.90
62007;DHT22;47963;53.008;6.754;2022-09-09T05:36:02;14.60;99.90
62007;DHT22;47963;53.008;6.754;2022-09-09T05:38:29;14.60;99.90
62007;DHT22;47963;53.008;6.754;2022-09-09T05:40:55;14.60;99.90
62007;DHT22;47963;53.008;6.754;2022-09-09T05:43:23;14.60;99.90
62007;DHT22;47963;53.008;6.754;2022-09-09T05:46:02;14.50;99.90
62007;DHT22;47963;53.008;6.754;2022-09-09T05:48:34;14.50;99.90
62007;DHT22;47963;53.008;6.754;2022-09-09T05:51:00;14.50;99.90
62007;DHT22;47963;53.008;6.754;2022-09-09T05:53:27;14.60;99.90
62007;DHT22;47963;53.008;6.754;2022-09-09T05:56:05;14.60;99.90
62007;DHT22;47963;53.008;6.754;2022-09-09T05:58:32;14.50;99.90
62007;DHT22;47963;53.008;6.754;2022-09-09T06:03:28;14.50;99.90
62007;DHT22;47963;53.008;6.754;2022-09-09T06:06:00;14.60;99.90
62007;DHT22;47963;53.008;6.754;2022-09-09T06:08:27;14.50;99.90
62007;DHT22;47963;53.008;6.754;2022-09-09T06:10:53;14.60;99.90
62007;DHT22;47963;53.008;6.754;2022-09-09T06:13:19;14.60;99.90
62007;DHT22;47963;53.008;6.754;2022-09-09T06:15:51;14.60;99.90
62007;DHT22;47963;53.008;6.754;2022-09-09T06:18:18;14.70;99.90
62007;DHT22;47963;53.008;6.754;2022-09-09T06:20:57;14.60;99.90
62007;DHT22;47963;53.008;6.754;2022-09-09T06:23:24;14.70;99.90
62007;DHT22;47963;53.008;6.754;2022-09-09T06:25:50;14.70;99.90
62007;DHT22;47963;53.008;6.754;2022-09-09T06:28:17;14.70;99.90
62007;DHT22;47963;53.008;6.754;2022-09-09T06:30:43;14.80;99.90
62007;DHT22;47963;53.008;6.754;2022-09-09T06:33:10;14.80;99.90
62007;DHT22;47963;53.008;6.754;2022-09-09T06:35:35;14.80;99.90
62007;DHT22;47963;53.008;6.754;2022-09-09T06:38:01;14.90;99.90
62007;DHT22;47963;53.008;6.754;2022-09-09T06:40:26;14.90;99.90
62007;DHT22;47963;53.008;6.754;2022-09-09T06:42:52;14.90;99.90
62007;DHT22;47963;53.008;6.754;2022-09-09T06:45:18;14.90;99.90
62007;DHT22;47963;53.008;6.754;2022-09-09T06:47:45;15.00;99.90
62007;DHT22;47963;53.008;6.754;2022-09-09T06:50:11;14.90;99.90
62007;DHT22;47963;53.008;6.754;2022-09-09T06:52:36;15.00;99.90
62007;DHT22;47963;53.008;6.754;2022-09-09T06:55:03;15.00;99.90
62007;DHT22;47963;53.008;6.754;2022-09-09T06:57:29;15.00;99.90
62007;DHT22;47963;53.008;6.754;2022-09-09T06:59:54;15.10;99.90
62007;DHT22;47963;53.008;6.754;2022-09-09T07:02:20;15.10;99.90
62007;DHT22;47963;53.008;6.754;2022-09-09T07:04:46;15.10;99.90
62007;DHT22;47963;53.008;6.754;2022-09-09T07:07:12;15.10;99.90
62007;DHT22;47963;53.008;6.754;2022-09-09T07:09:40;15.10;99.90
62007;DHT22;47963;53.008;6.754;2022-09-09T07:12:06;15.10;99.90
62007;DHT22;47963;53.008;6.754;2022-09-09T07:14:32;15.20;99.90
62007;DHT22;47963;53.008;6.754;2022-09-09T07:16:59;15.20;99.90
62007;DHT22;47963;53.008;6.754;2022-09-09T07:19:25;15.30;99.90
62007;DHT22;47963;53.008;6.754;2022-09-09T07:21:51;15.30;99.90
62007;DHT22;47963;53.008;6.754;2022-09-09T07:24:17;15.40;99.90
62007;DHT22;47963;53.008;6.754;2022-09-09T07:26:43;15.40;99.90
62007;DHT22;47963;53.008;6.754;2022-09-09T07:29:09;15.50;99.90
62007;DHT22;47963;53.008;6.754;2022-09-09T07:31:37;15.50;99.90
62007;DHT22;47963;53.008;6.754;2022-09-09T07:34:03;15.50;99.90
62007;DHT22;47963;53.008;6.754;2022-09-09T07:36:37;15.50;99.90
62007;DHT22;47963;53.008;6.754;2022-09-09T07:39:06;15.50;99.90
62007;DHT22;47963;53.008;6.754;2022-09-09T07:41:43;15.50;99.90
62007;DHT22;47963;53.008;6.754;2022-09-09T07:44:13;15.50;99.90
62007;DHT22;47963;53.008;6.754;2022-09-09T07:46:39;15.50;99.90
62007;DHT22;47963;53.008;6.754;2022-09-09T07:49:06;15.50;99.90
62007;DHT22;47963;53.008;6.754;2022-09-09T07:51:35;15.50;99.90
62007;DHT22;47963;53.008;6.754;2022-09-09T07:54:04;15.60;99.90
62007;DHT22;47963;53.008;6.754;2022-09-09T07:56:30;15.60;99.90
62007;DHT22;47963;53.008;6.754;2022-09-09T07:58:57;15.60;99.90
62007;DHT22;47963;53.008;6.754;2022-09-09T08:01:33;15.60;99.90
62007;DHT22;47963;53.008;6.754;2022-09-09T08:04:05;15.70;99.90
62007;DHT22;47963;53.008;6.754;2022-09-09T08:06:34;15.80;99.90
62007;DHT22;47963;53.008;6.754;2022-09-09T08:09:00;15.80;99.90
62007;DHT22;47963;53.008;6.754;2022-09-09T08:11:28;15.80;99.90
62007;DHT22;47963;53.008;6.754;2022-09-09T08:13:55;15.80;99.90
62007;DHT22;47963;53.008;6.754;2022-09-09T08:16:27;16.00;99.90
62007;DHT22;47963;53.008;6.754;2022-09-09T08:21:27;16.50;99.90
62007;DHT22;47963;53.008;6.754;2022-09-09T08:23:54;16.50;99.90
62007;DHT22;47963;53.008;6.754;2022-09-09T08:26:23;16.50;99.90
62007;DHT22;47963;53.008;6.754;2022-09-09T08:28:53;16.50;99.90
62007;DHT22;47963;53.008;6.754;2022-09-09T08:33:48;16.70;99.90
62007;DHT22;47963;53.008;6.754;2022-09-09T08:36:16;16.70;99.90
62007;DHT22;47963;53.008;6.754;2022-09-09T08:38:42;16.70;99.90
62007;DHT22;47963;53.008;6.754;2022-09-09T08:52:18;17.20;99.90
62007;DHT22;47963;53.008;6.754;2022-09-09T08:54:46;17.20;99.90
62007;DHT22;47963;53.008;6.754;2022-09-09T08:57:16;17.10;99.90
62007;DHT22;47963;53.008;6.754;2022-09-09T08:59:43;17.10;99.90
62007;DHT22;47963;53.008;6.754;2022-09-09T09:07:39;17.30;99.90
62007;DHT22;47963;53.008;6.754;2022-09-09T09:10:33;17.40;99.90
62007;DHT22;47963;53.008;6.754;2022-09-09T09:13:02;17.50;99.90
62007;DHT22;47963;53.008;6.754;2022-09-09T09:15:37;17.40;99.90
62007;DHT22;47963;53.008;6.754;2022-09-09T09:18:04;17.50;99.90
62007;DHT22;47963;53.008;6.754;2022-09-09T09:20:57;17.50;99.90
62007;DHT22;47963;53.008;6.754;2022-09-09T09:23:37;17.60;99.90
62007;DHT22;47963;53.008;6.754;2022-09-09T09:26:09;17.70;99.90
62007;DHT22;47963;53.008;6.754;2022-09-09T09:28:36;17.70;99.90
62007;DHT22;47963;53.008;6.754;2022-09-09T09:31:07;17.70;99.90
62007;DHT22;47963;53.008;6.754;2022-09-09T09:36:07;17.80;99.90
62007;DHT22;47963;53.008;6.754;2022-09-09T09:38:35;17.80;99.90
62007;DHT22;47963;53.008;6.754;2022-09-09T09:41:01;17.90;99.90
62007;DHT22;47963;53.008;6.754;2022-09-09T09:43:33;17.80;99.90
62007;DHT22;47963;53.008;6.754;2022-09-09T09:45:59;17.80;99.90
62007;DHT22;47963;53.008;6.754;2022-09-09T09:48:26;17.70;99.90
62007;DHT22;47963;53.008;6.754;2022-09-09T09:51:16;17.70;99.90
62007;DHT22;47963;53.008;6.754;2022-09-09T09:53:42;17.70;99.90
62007;DHT22;47963;53.008;6.754;2022-09-09T09:56:11;17.70;99.90
62007;DHT22;47963;53.008;6.754;2022-09-09T10:01:26;17.80;99.90
62007;DHT22;47963;53.008;6.754;2022-09-09T10:04:15;17.80;99.90
62007;DHT22;47963;53.008;6.754;2022-09-09T10:06:41;18.00;99.90
62007;DHT22;47963;53.008;6.754;2022-09-09T10:09:28;18.00;99.90
62007;DHT22;47963;53.008;6.754;2022-09-09T10:12:11;17.90;99.90
62007;DHT22;47963;53.008;6.754;2022-09-09T10:14:42;17.70;99.90
62007;DHT22;47963;53.008;6.754;2022-09-09T10:22:51;17.60;99.90
62007;DHT22;47963;53.008;6.754;2022-09-09T10:25:49;17.70;99.90
62007;DHT22;47963;53.008;6.754;2022-09-09T10:31:24;18.10;99.90
62007;DHT22;47963;53.008;6.754;2022-09-09T10:34:00;18.40;99.90
62007;DHT22;47963;53.008;6.754;2022-09-09T10:36:31;18.40;99.90
62007;DHT22;47963;53.008;6.754;2022-09-09T10:42:05;18.60;99.90
62007;DHT22;47963;53.008;6.754;2022-09-09T10:50:18;19.10;99.90
62007;DHT22;47963;53.008;6.754;2022-09-09T10:56:13;19.30;99.90
62007;DHT22;47963;53.008;6.754;2022-09-09T10:58:42;19.50;99.90
62007;DHT22;47963;53.008;6.754;2022-09-09T11:01:31;19.50;99.90
62007;DHT22;47963;53.008;6.754;2022-09-09T11:04:08;19.50;99.90
62007;DHT22;47963;53.008;6.754;2022-09-09T11:06:40;19.60;99.90
62007;DHT22;47963;53.008;6.754;2022-09-09T11:09:14;19.80;99.90
62007;DHT22;47963;53.008;6.754;2022-09-09T11:11:54;20.00;99.90
62007;DHT22;47963;53.008;6.754;2022-09-09T11:17:21;19.80;99.90
62007;DHT22;47963;53.008;6.754;2022-09-09T11:19:48;19.50;99.90
62007;DHT22;47963;53.008;6.754;2022-09-09T11:22:26;19.50;99.90
62007;DHT22;47963;53.008;6.754;2022-09-09T11:25:04;19.80;99.90
62007;DHT22;47963;53.008;6.754;2022-09-09T11:38:29;20.20;99.90
62007;DHT22;47963;53.008;6.754;2022-09-09T11:41:02;19.90;99.90
62007;DHT22;47963;53.008;6.754;2022-09-09T11:43:46;19.80;99.90
62007;DHT22;47963;53.008;6.754;2022-09-09T11:46:16;19.60;99.90
62007;DHT22;47963;53.008;6.754;2022-09-09T11:48:45;19.50;99.90
62007;DHT22;47963;53.008;6.754;2022-09-09T11:53:52;19.40;99.90
62007;DHT22;47963;53.008;6.754;2022-09-09T11:56:30;19.70;99.90
62007;DHT22;47963;53.008;6.754;2022-09-09T11:59:20;20.00;99.90
62007;DHT22;47963;53.008;6.754;2022-09-09T12:02:28;19.70;99.90
62007;DHT22;47963;53.008;6.754;2022-09-09T12:05:00;19.80;99.90
62007;DHT22;47963;53.008;6.754;2022-09-09T12:12:35;19.70;99.90
62007;DHT22;47963;53.008;6.754;2022-09-09T12:15:28;19.60;99.90
62007;DHT22;47963;53.008;6.754;2022-09-09T12:17:56;19.70;99.90
62007;DHT22;47963;53.008;6.754;2022-09-09T12:20:31;19.60;99.90
62007;DHT22;47963;53.008;6.754;2022-09-09T12:33:53;20.40;99.90
62007;DHT22;47963;53.008;6.754;2022-09-09T12:36:22;20.40;99.90
62007;DHT22;47963;53.008;6.754;2022-09-09T12:38:49;20.20;99.90
62007;DHT22;47963;53.008;6.754;2022-09-09T12:41:27;20.50;99.90
62007;DHT22;47963;53.008;6.754;2022-09-09T12:44:04;20.70;99.90
62007;DHT22;47963;53.008;6.754;2022-09-09T12:46:38;21.00;99.90
62007;DHT22;47963;53.008;6.754;2022-09-09T12:49:19;20.90;99.90
62007;DHT22;47963;53.008;6.754;2022-09-09T12:51:49;20.70;99.90
62007;DHT22;47963;53.008;6.754;2022-09-09T12:54:15;20.70;99.90
62007;DHT22;47963;53.008;6.754;2022-09-09T12:56:46;20.70;99.90
62007;DHT22;47963;53.008;6.754;2022-09-09T12:59:26;20.50;99.90
62007;DHT22;47963;53.008;6.754;2022-09-09T13:02:00;20.70;99.90
62007;DHT22;47963;53.008;6.754;2022-09-09T13:04:26;20.90;99.90
62007;DHT22;47963;53.008;6.754;2022-09-09T13:06:51;21.10;99.90
62007;DHT22;47963;53.008;6.754;2022-09-09T13:09:20;21.00;99.90
62007;DHT22;47963;53.008;6.754;2022-09-09T13:11:53;20.90;99.90
62007;DHT22;47963;53.008;6.754;2022-09-09T13:14:35;20.60;99.90
62007;DHT22;47963;53.008;6.754;2022-09-09T13:17:05;20.50;99.90
62007;DHT22;47963;53.008;6.754;2022-09-09T13:19:36;20.30;99.90
62007;DHT22;47963;53.008;6.754;2022-09-09T13:22:35;20.20;99.90
62007;DHT22;47963;53.008;6.754;2022-09-09T13:25:18;20.00;99.90
62007;DHT22;47963;53.008;6.754;2022-09-09T13:28:05;19.80;99.90
62007;DHT22;47963;53.008;6.754;2022-09-09T13:31:02;19.80;99.90
62007;DHT22;47963;53.008;6.754;2022-09-09T13:33:38;19.40;99.90
62007;DHT22;47963;53.008;6.754;2022-09-09T13:36:07;19.30;99.90
62007;DHT22;47963;53.008;6.754;2022-09-09T13:38:40;19.00;99.90
62007;DHT22;47963;53.008;6.754;2022-09-09T13:41:42;18.90;99.90
62007;DHT22;47963;53.008;6.754;2022-09-09T13:44:25;19.00;99.90
62007;DHT22;47963;53.008;6.754;2022-09-09T13:49:30;20.00;99.90
62007;DHT22;47963;53.008;6.754;2022-09-09T13:52:16;20.20;99.90
62007;DHT22;47963;53.008;6.754;2022-09-09T13:54:51;20.60;99.90
62007;DHT22;47963;53.008;6.754;2022-09-09T13:57:26;21.00;99.90
62007;DHT22;47963;53.008;6.754;2022-09-09T13:59:53;21.20;99.90
62007;DHT22;47963;53.008;6.754;2022-09-09T14:02:20;21.10;99.90
62007;DHT22;47963;53.008;6.754;2022-09-09T14:04:48;21.00;99.90
62007;DHT22;47963;53.008;6.754;2022-09-09T14:07:17;20.80;99.90
62007;DHT22;47963;53.008;6.754;2022-09-09T14:09:43;20.50;99.90
62007;DHT22;47963;53.008;6.754;2022-09-09T14:12:11;20.40;99.90
62007;DHT22;47963;53.008;6.754;2022-09-09T14:14:37;20.30;99.90
62007;DHT22;47963;53.008;6.754;2022-09-09T14:17:03;20.10;99.90
62007;DHT22;47963;53.008;6.754;2022-09-09T14:19:29;20.00;99.90
62007;DHT22;47963;53.008;6.754;2022-09-09T14:21:56;19.90;99.90
62007;DHT22;47963;53.008;6.754;2022-09-09T14:24:22;19.90;99.90
62007;DHT22;47963;53.008;6.754;2022-09-09T14:26:48;20.30;99.90
62007;DHT22;47963;53.008;6.754;2022-09-09T14:29:13;20.50;99.90
62007;DHT22;47963;53.008;6.754;2022-09-09T14:31:39;20.50;99.90
62007;DHT22;47963;53.008;6.754;2022-09-09T14:34:04;20.40;99.90
62007;DHT22;47963;53.008;6.754;2022-09-09T14:36:30;20.50;99.90
62007;DHT22;47963;53.008;6.754;2022-09-09T14:38:56;20.50;99.90
62007;DHT22;47963;53.008;6.754;2022-09-09T14:41:23;20.60;99.90
62007;DHT22;47963;53.008;6.754;2022-09-09T14:43:48;20.60;99.90
62007;DHT22;47963;53.008;6.754;2022-09-09T14:46:16;20.50;99.90
62007;DHT22;47963;53.008;6.754;2022-09-09T14:48:42;20.50;99.90
62007;DHT22;47963;53.008;6.754;2022-09-09T14:51:20;20.40;99.90
62007;DHT22;47963;53.008;6.754;2022-09-09T14:53:48;20.30;99.90
62007;DHT22;47963;53.008;6.754;2022-09-09T14:56:18;20.20;99.90
62007;DHT22;47963;53.008;6.754;2022-09-09T14:58:44;20.00;99.90
62007;DHT22;47963;53.008;6.754;2022-09-09T15:01:15;19.90;99.90
62007;DHT22;47963;53.008;6.754;2022-09-09T15:03:42;20.10;99.90
62007;DHT22;47963;53.008;6.754;2022-09-09T15:06:11;20.50;99.90
62007;DHT22;47963;53.008;6.754;2022-09-09T15:08:38;21.60;99.90
62007;DHT22;47963;53.008;6.754;2022-09-09T15:11:05;22.90;99.90
62007;DHT22;47963;53.008;6.754;2022-09-09T15:13:34;24.00;99.90
62007;DHT22;47963;53.008;6.754;2022-09-09T15:16:11;23.00;99.90
62007;DHT22;47963;53.008;6.754;2022-09-09T15:18:37;24.10;99.90
62007;DHT22;47963;53.008;6.754;2022-09-09T15:21:12;26.30;99.90
62007;DHT22;47963;53.008;6.754;2022-09-09T15:23:38;27.80;99.90
62007;DHT22;47963;53.008;6.754;2022-09-09T15:26:04;26.30;99.90
62007;DHT22;47963;53.008;6.754;2022-09-09T15:28:32;26.20;99.90
62007;DHT22;47963;53.008;6.754;2022-09-09T15:31:06;25.30;99.90
62007;DHT22;47963;53.008;6.754;2022-09-09T15:33:33;24.40;99.90
62007;DHT22;47963;53.008;6.754;2022-09-09T15:35:59;23.90;99.90
62007;DHT22;47963;53.008;6.754;2022-09-09T15:38:25;24.40;99.90
62007;DHT22;47963;53.008;6.754;2022-09-09T15:40:54;26.40;99.90
62007;DHT22;47963;53.008;6.754;2022-09-09T15:43:21;28.10;99.90
62007;DHT22;47963;53.008;6.754;2022-09-09T15:45:52;28.90;99.90
62007;DHT22;47963;53.008;6.754;2022-09-09T15:48:30;28.10;99.90
62007;DHT22;47963;53.008;6.754;2022-09-09T15:51:04;26.70;99.90
62007;DHT22;47963;53.008;6.754;2022-09-09T15:53:31;25.50;99.90
62007;DHT22;47963;53.008;6.754;2022-09-09T15:55:59;25.10;99.90
62007;DHT22;47963;53.008;6.754;2022-09-09T15:58:25;24.20;99.90
62007;DHT22;47963;53.008;6.754;2022-09-09T16:01:10;23.40;99.90
62007;DHT22;47963;53.008;6.754;2022-09-09T16:03:38;22.90;99.90
62007;DHT22;47963;53.008;6.754;2022-09-09T16:06:04;22.50;99.90
62007;DHT22;47963;53.008;6.754;2022-09-09T16:08:37;22.40;99.90
62007;DHT22;47963;53.008;6.754;2022-09-09T16:11:14;21.90;99.90
62007;DHT22;47963;53.008;6.754;2022-09-09T16:13:42;21.40;99.90
62007;DHT22;47963;53.008;6.754;2022-09-09T16:16:11;21.20;99.90
62007;DHT22;47963;53.008;6.754;2022-09-09T16:18:42;20.90;99.90
62007;DHT22;47963;53.008;6.754;2022-09-09T16:21:20;20.70;99.90
62007;DHT22;47963;53.008;6.754;2022-09-09T16:23:46;20.40;99.90
62007;DHT22;47963;53.008;6.754;2022-09-09T16:26:14;20.20;99.90
62007;DHT22;47963;53.008;6.754;2022-09-09T16:28:40;20.10;99.90
62007;DHT22;47963;53.008;6.754;2022-09-09T16:31:07;20.10;99.90
62007;DHT22;47963;53.008;6.754;2022-09-09T16:33:33;19.90;99.90
62007;DHT22;47963;53.008;6.754;2022-09-09T16:36:09;19.80;99.90
62007;DHT22;47963;53.008;6.754;2022-09-09T16:38:36;19.80;99.90
62007;DHT22;47963;53.008;6.754;2022-09-09T16:41:06;19.70;99.90
62007;DHT22;47963;53.008;6.754;2022-09-09T16:43:33;19.60;99.90
62007;DHT22;47963;53.008;6.754;2022-09-09T16:46:00;19.70;99.90
62007;DHT22;47963;53.008;6.754;2022-09-09T16:48:35;19.70;99.90
62007;DHT22;47963;53.008;6.754;2022-09-09T16:51:05;19.60;99.90
62007;DHT22;47963;53.008;6.754;2022-09-09T16:53:34;19.40;99.90
62007;DHT22;47963;53.008;6.754;2022-09-09T16:56:07;19.50;99.90
62007;DHT22;47963;53.008;6.754;2022-09-09T16:58:34;19.80;99.90
62007;DHT22;47963;53.008;6.754;2022-09-09T17:01:00;20.00;99.90
62007;DHT22;47963;53.008;6.754;2022-09-09T17:03:27;19.90;99.90
62007;DHT22;47963;53.008;6.754;2022-09-09T17:05:53;19.90;99.90
62007;DHT22;47963;53.008;6.754;2022-09-09T17:08:19;19.90;99.90
62007;DHT22;47963;53.008;6.754;2022-09-09T17:10:44;19.90;99.90
62007;DHT22;47963;53.008;6.754;2022-09-09T17:13:11;19.80;99.90
62007;DHT22;47963;53.008;6.754;2022-09-09T17:15:42;19.80;99.90
62007;DHT22;47963;53.008;6.754;2022-09-09T17:18:11;19.70;99.90
62007;DHT22;47963;53.008;6.754;2022-09-09T17:20:40;19.70;99.90
62007;DHT22;47963;53.008;6.754;2022-09-09T17:23:08;19.60;99.90
62007;DHT22;47963;53.008;6.754;2022-09-09T17:25:34;19.60;99.90
62007;DHT22;47963;53.008;6.754;2022-09-09T17:28:01;19.50;99.90
62007;DHT22;47963;53.008;6.754;2022-09-09T17:30:27;19.40;99.90
62007;DHT22;47963;53.008;6.754;2022-09-09T17:32:53;19.40;99.90
62007;DHT22;47963;53.008;6.754;2022-09-09T17:35:19;19.40;99.90
62007;DHT22;47963;53.008;6.754;2022-09-09T17:37:45;19.30;99.90
62007;DHT22;47963;53.008;6.754;2022-09-09T17:40:11;19.30;99.90
62007;DHT22;47963;53.008;6.754;2022-09-09T17:42:36;19.20;99.90
62007;DHT22;47963;53.008;6.754;2022-09-09T17:45:03;19.20;99.90
62007;DHT22;47963;53.008;6.754;2022-09-09T17:47:28;19.20;99.90
62007;DHT22;47963;53.008;6.754;2022-09-09T17:49:56;19.10;99.90
62007;DHT22;47963;53.008;6.754;2022-09-09T17:52:21;19.10;99.90
62007;DHT22;47963;53.008;6.754;2022-09-09T17:54:48;19.00;99.90
62007;DHT22;47963;53.008;6.754;2022-09-09T17:57:15;19.00;99.90
62007;DHT22;47963;53.008;6.754;2022-09-09T17:59:42;18.90;99.90
62007;DHT22;47963;53.008;6.754;2022-09-09T18:02:11;18.90;99.90